Time;durP1;ratioP1;P1;durP2;ratioP2;P2;SDS_P1;SDS_P2;PMS_P1;PMS_P2;Temp;Humidity;BMP_temperature;BMP_pressure;BME280_temperature;BME280_humidity;BME280_pressure;Samples;Min_cycle;Max_cycle;Signal;HPM_P1;HPM_P2
2023/01/07 00:01:18;;;;;;;;;5.00;4.00;;;;;12.56;65.59;101366.25;4999612;28;47112;-48
2023/01/07 00:03:45;;;;;;;;;3.00;3.00;;;;;12.54;65.44;101365.41;4982158;28;45537;-50
2023/01/07 00:06:17;;;;;;;;;3.75;3.00;;;;;12.56;65.51;101365.38;4999741;28;45307;-46
2023/01/07 00:08:44;;;;;;;;;4.00;4.00;;;;;12.51;65.89;101361.03;4999990;28;45436;-48
2023/01/07 00:11:19;;;;;;;;;3.00;2.25;;;;;12.51;65.84;101352.25;4999677;28;46216;-51
2023/01/07 00:13:47;;;;;;;;;4.50;4.00;;;;;12.55;65.58;101356.59;5001223;28;45529;-48
2023/01/07 00:16:15;;;;;;;;;5.75;4.50;;;;;12.52;65.21;101352.22;5000475;28;45255;-51
2023/01/07 00:18:42;;;;;;;;;2.75;2.75;;;;;12.51;65.59;101339.06;4966330;28;45591;-47
2023/01/07 00:21:11;;;;;;;;;3.75;3.75;;;;;12.56;65.34;101341.66;4999628;28;46363;-51
2023/01/07 00:23:38;;;;;;;;;2.00;2.00;;;;;12.52;66.12;101338.19;4999751;28;45337;-50
2023/01/07 00:26:05;;;;;;;;;4.25;3.50;;;;;12.49;65.98;101331.19;4998321;28;45364;-50
2023/01/07 00:28:33;;;;;;;;;3.00;3.00;;;;;12.45;65.91;101323.31;4999752;28;45341;-51
2023/01/07 00:31:00;;;;;;;;;3.50;3.00;;;;;12.49;65.24;101318.00;4999376;28;45362;-49
2023/01/07 00:33:27;;;;;;;;;3.00;2.50;;;;;12.43;66.07;101318.09;4997094;28;45846;-48
2023/01/07 00:36:04;;;;;;;;;4.75;3.00;;;;;12.43;65.49;101304.91;4998078;28;45422;-48
2023/01/07 00:38:30;;;;;;;;;4.00;4.00;;;;;12.42;65.52;101299.66;4997565;28;45498;-46
2023/01/07 00:40:55;;;;;;;;;3.50;3.50;;;;;12.44;65.44;101285.56;5001086;28;46169;-51
2023/01/07 00:43:20;;;;;;;;;3.50;3.50;;;;;12.44;65.38;101287.31;5019352;28;45308;-51
2023/01/07 00:45:46;;;;;;;;;3.50;3.50;;;;;12.46;65.13;101280.25;5004491;28;45217;-48
2023/01/07 00:48:11;;;;;;;;;3.00;2.00;;;;;12.46;65.33;101277.63;5017491;28;45241;-50
2023/01/07 00:50:38;;;;;;;;;3.25;3.25;;;;;12.46;65.60;101275.00;5019553;28;48016;-51
2023/01/07 00:53:03;;;;;;;;;6.25;4.00;;;;;12.49;64.87;101270.56;5016678;28;45282;-50
2023/01/07 00:55:30;;;;;;;;;3.00;3.00;;;;;12.52;65.11;101269.63;5007627;28;45555;-50
2023/01/07 00:57:56;;;;;;;;;3.00;3.00;;;;;12.46;65.15;101257.41;5016004;28;45505;-49
2023/01/07 01:00:23;;;;;;;;;2.75;2.75;;;;;12.45;64.91;101257.44;5006608;28;46046;-48
2023/01/07 01:02:50;;;;;;;;;2.25;2.25;;;;;12.49;64.78;101253.84;5013725;28;45328;-47
2023/01/07 01:05:16;;;;;;;;;3.00;2.75;;;;;12.48;65.18;101249.50;5006117;28;45373;-47
2023/01/07 01:07:41;;;;;;;;;1.50;1.50;;;;;12.51;64.85;101252.06;5011041;28;45272;-48
2023/01/07 01:10:10;;;;;;;;;2.00;2.00;;;;;12.49;64.74;101233.66;5019380;28;46081;-48
2023/01/07 01:12:35;;;;;;;;;3.00;3.00;;;;;12.47;65.05;101239.84;5024016;28;45251;-50
2023/01/07 01:15:02;;;;;;;;;4.00;3.00;;;;;12.55;64.53;101237.09;5018808;28;45352;-49
2023/01/07 01:17:28;;;;;;;;;2.75;2.75;;;;;12.52;64.87;101233.59;5011454;28;45341;-52
2023/01/07 01:19:53;;;;;;;;;3.00;3.00;;;;;12.46;65.55;101243.38;5017967;28;46115;-49
2023/01/07 01:22:18;;;;;;;;;2.75;2.75;;;;;12.47;64.91;101231.94;5018751;28;45767;-48
2023/01/07 01:24:44;;;;;;;;;2.75;2.00;;;;;12.43;65.22;101228.47;5018594;28;45476;-47
2023/01/07 01:27:09;;;;;;;;;3.50;2.00;;;;;12.44;65.38;101227.56;5002429;28;45479;-48
2023/01/07 01:29:34;;;;;;;;;4.00;2.00;;;;;12.48;64.94;101229.25;5016649;28;45337;-48
2023/01/07 01:32:00;;;;;;;;;4.25;2.75;;;;;12.42;65.15;101226.72;5002227;28;45295;-50
2023/01/07 01:34:25;;;;;;;;;3.00;3.00;;;;;12.41;65.49;101222.34;5017921;28;45527;-47
2023/01/07 01:36:51;;;;;;;;;2.00;2.00;;;;;12.40;65.45;101217.09;5002261;28;45463;-50
2023/01/07 01:39:19;;;;;;;;;2.75;1.75;;;;;12.44;65.36;101213.50;5015088;28;45301;-49
2023/01/07 01:41:44;;;;;;;;;3.00;3.00;;;;;12.47;64.57;101211.69;5013650;28;45506;-49
2023/01/07 01:44:47;;;;;;;;;3.25;3.00;;;;;12.45;64.84;101216.16;5012983;28;45217;-52
2023/01/07 01:47:22;;;;;;;;;3.00;3.00;;;;;12.43;65.09;101211.78;5009158;28;45179;-47
2023/01/07 01:50:01;;;;;;;;;4.00;4.00;;;;;12.40;65.16;101215.34;5000765;28;46108;-47
2023/01/07 01:52:47;;;;;;;;;6.00;4.00;;;;;12.41;65.11;101217.06;5001870;28;45350;-49
2023/01/07 01:55:16;;;;;;;;;5.00;2.00;;;;;12.40;65.17;101210.06;5017339;28;45345;-48
2023/01/07 01:57:42;;;;;;;;;4.00;2.00;;;;;12.44;65.18;101205.59;5001657;28;45222;-47
2023/01/07 02:00:08;;;;;;;;;4.50;3.00;;;;;12.47;64.57;101198.53;5001824;28;45331;-48
2023/01/07 02:02:47;;;;;;;;;3.25;3.00;;;;;12.49;64.58;101196.75;5001646;28;45296;-50
2023/01/07 02:05:12;;;;;;;;;3.25;3.25;;;;;12.54;64.49;101196.69;5002788;28;45390;-47
2023/01/07 02:07:38;;;;;;;;;2.00;2.00;;;;;12.56;64.50;101194.03;5012969;28;45641;-54
2023/01/07 02:10:31;;;;;;;;;2.25;2.25;;;;;12.51;64.89;101187.06;5001750;28;45455;-50
2023/01/07 02:13:19;;;;;;;;;3.25;2.25;;;;;12.49;64.94;101187.94;5005179;28;45341;-47
2023/01/07 02:15:44;;;;;;;;;3.00;3.00;;;;;12.48;64.29;101183.59;5015266;28;45396;-48
2023/01/07 02:18:22;;;;;;;;;2.25;2.25;;;;;12.49;64.83;101180.03;5013948;28;45518;-46
2023/01/07 02:20:56;;;;;;;;;3.00;2.00;;;;;12.46;65.07;101169.56;5014261;28;45411;-48
2023/01/07 02:23:40;;;;;;;;;4.00;3.00;;;;;12.48;64.99;101173.91;5014951;28;45479;-50
2023/01/07 02:26:44;;;;;;;;;4.00;3.00;;;;;12.41;64.79;101163.50;5015740;28;45969;-48
2023/01/07 02:29:36;;;;;;;;;3.00;2.75;;;;;12.43;64.85;101159.94;5003378;28;45392;-50
2023/01/07 02:32:22;;;;;;;;;1.75;1.75;;;;;12.44;64.87;101158.16;5018254;28;46138;-47
2023/01/07 02:35:18;;;;;;;;;2.00;2.00;;;;;12.46;64.84;101161.66;5013747;28;45374;-48
2023/01/07 02:37:52;;;;;;;;;4.00;4.00;;;;;12.42;65.11;101163.47;5006850;28;45387;-49
2023/01/07 02:40:29;;;;;;;;;3.00;3.00;;;;;12.41;64.79;101155.59;5027669;28;45423;-50
2023/01/07 02:43:06;;;;;;;;;3.00;3.00;;;;;12.41;64.68;101151.16;4994871;28;47066;-47
2023/01/07 02:45:43;;;;;;;;;4.00;2.50;;;;;12.43;64.67;101157.28;4980117;28;45248;-48
2023/01/07 02:48:12;;;;;;;;;2.00;2.00;;;;;12.43;64.46;101154.66;4980911;28;45405;-48
2023/01/07 02:50:38;;;;;;;;;4.00;4.00;;;;;12.42;64.73;101146.78;4980889;28;45319;-48
2023/01/07 02:53:05;;;;;;;;;2.50;2.50;;;;;12.43;64.80;101140.63;4981352;28;45327;-47
2023/01/07 02:55:52;;;;;;;;;2.00;2.00;;;;;12.42;64.56;101134.47;4981343;28;45240;-52
2023/01/07 02:58:36;;;;;;;;;2.00;2.00;;;;;12.40;64.46;101127.47;4992438;28;45179;-51
2023/01/07 03:01:37;;;;;;;;;3.00;3.00;;;;;12.40;64.75;101125.72;4981281;28;45252;-51
2023/01/07 03:04:31;;;;;;;;;4.75;2.50;;;;;12.42;64.35;101120.44;4953084;28;46694;-49
2023/01/07 03:07:17;;;;;;;;;3.25;3.25;;;;;12.42;64.54;101120.44;4981065;28;45286;-51
2023/01/07 03:09:55;;;;;;;;;2.00;1.75;;;;;12.43;64.15;101109.00;4980947;28;45329;-50
2023/01/07 03:12:29;;;;;;;;;5.75;3.00;;;;;12.43;64.36;101109.00;5000708;28;45267;-51
2023/01/07 03:15:21;;;;;;;;;2.00;2.00;;;;;12.44;64.39;101108.06;4997812;28;45447;-48
2023/01/07 03:17:52;;;;;;;;;2.50;1.25;;;;;12.46;64.49;101101.03;4980725;28;45540;-51
2023/01/07 03:20:21;;;;;;;;;3.00;2.50;;;;;12.41;64.52;101108.13;4980686;28;45450;-49
2023/01/07 03:22:48;;;;;;;;;3.00;2.00;;;;;12.42;64.58;101099.34;4980946;28;45421;-49
2023/01/07 03:25:16;;;;;;;;;4.00;1.25;;;;;12.35;64.64;101094.16;4980521;28;45400;-51
2023/01/07 03:27:46;;;;;;;;;1.00;1.00;;;;;12.41;64.42;101089.69;4980767;28;45180;-48
2023/01/07 03:30:15;;;;;;;;;4.00;4.00;;;;;12.41;64.32;101079.16;5000818;28;45394;-51
2023/01/07 03:33:01;;;;;;;;;2.00;2.00;;;;;12.39;64.42;101084.44;4986186;28;45589;-52
2023/01/07 03:35:31;;;;;;;;;2.50;2.50;;;;;12.39;63.90;101073.03;4980464;28;45446;-47
2023/01/07 03:37:59;;;;;;;;;1.00;1.00;;;;;12.40;64.32;101078.28;4980656;28;45510;-49
2023/01/07 03:40:24;;;;;;;;;3.75;3.75;;;;;12.39;64.29;101073.91;4979483;28;45352;-48
2023/01/07 03:42:50;;;;;;;;;2.75;2.75;;;;;12.37;64.27;101064.28;4986316;28;45484;-50
2023/01/07 03:45:18;;;;;;;;;1.75;1.75;;;;;12.41;64.17;101071.25;5000292;28;46436;-48
2023/01/07 03:47:47;;;;;;;;;3.75;2.00;;;;;12.43;64.27;101072.09;5000311;28;45356;-48
2023/01/07 03:50:13;;;;;;;;;3.00;3.00;;;;;12.40;64.32;101062.47;5000112;28;45274;-51
2023/01/07 03:52:38;;;;;;;;;3.00;3.00;;;;;12.40;64.15;101058.94;4998744;28;45302;-49
2023/01/07 03:55:04;;;;;;;;;2.25;2.00;;;;;12.40;64.22;101045.78;5000060;28;46212;-48
2023/01/07 03:57:31;;;;;;;;;2.50;2.00;;;;;12.34;64.30;101033.59;5000019;28;45397;-48
2023/01/07 03:59:57;;;;;;;;;3.00;2.00;;;;;12.36;64.27;101037.03;5000283;28;45315;-48
2023/01/07 04:02:22;;;;;;;;;3.00;3.00;;;;;12.43;63.90;101038.69;5000018;28;45297;-46
2023/01/07 04:04:48;;;;;;;;;3.25;2.75;;;;;12.35;64.03;101038.81;4999708;28;45326;-52
2023/01/07 04:07:13;;;;;;;;;3.00;3.00;;;;;12.37;64.29;101022.97;4999873;28;45534;-50
2023/01/07 04:09:39;;;;;;;;;2.75;2.75;;;;;12.35;64.24;101023.00;5000248;28;45167;-50
2023/01/07 04:12:04;;;;;;;;;4.50;2.00;;;;;12.30;64.21;101014.31;4999800;28;45551;-50
2023/01/07 04:14:30;;;;;;;;;2.00;2.00;;;;;12.34;63.72;101008.09;4998674;28;45411;-47
2023/01/07 04:16:55;;;;;;;;;3.50;3.50;;;;;12.38;64.22;101008.03;4999796;28;45355;-47
2023/01/07 04:19:20;;;;;;;;;4.75;3.00;;;;;12.33;63.91;101003.72;4999851;28;45346;-48
2023/01/07 04:21:46;;;;;;;;;3.25;3.00;;;;;12.34;64.10;100994.06;4999777;28;45554;-46
2023/01/07 04:24:11;;;;;;;;;5.25;3.00;;;;;12.27;64.27;100995.91;4999679;28;46306;-49
2023/01/07 04:26:37;;;;;;;;;3.00;3.00;;;;;12.31;63.87;100994.97;5000429;28;45306;-47
2023/01/07 04:29:02;;;;;;;;;2.25;2.25;;;;;12.35;63.72;100988.75;5003556;28;45687;-49
2023/01/07 04:31:28;;;;;;;;;4.00;3.25;;;;;12.32;63.84;100983.53;5001806;28;45550;-49
2023/01/07 04:33:53;;;;;;;;;4.25;4.25;;;;;12.32;63.60;100975.63;4993010;28;45255;-49
2023/01/07 04:36:18;;;;;;;;;3.00;1.75;;;;;12.33;63.99;100980.00;5000019;28;45400;-49
2023/01/07 04:38:44;;;;;;;;;3.75;3.25;;;;;12.27;64.01;100964.28;5003384;28;45480;-48
2023/01/07 04:41:09;;;;;;;;;4.00;4.00;;;;;12.27;64.04;100959.03;4999341;28;45409;-48
2023/01/07 04:43:35;;;;;;;;;3.50;3.50;;;;;12.29;63.95;100954.59;4993398;28;46171;-50
2023/01/07 04:46:01;;;;;;;;;3.00;3.00;;;;;12.26;63.81;100948.50;5002939;28;45302;-50
2023/01/07 04:48:27;;;;;;;;;4.50;3.00;;;;;12.22;64.02;100952.97;5001945;28;45195;-50
2023/01/07 04:50:52;;;;;;;;;3.00;3.00;;;;;12.23;63.79;100945.94;5002735;28;45335;-47
2023/01/07 04:53:18;;;;;;;;;3.25;2.75;;;;;12.11;64.12;100932.09;5002884;28;46010;-48
2023/01/07 04:55:43;;;;;;;;;3.00;2.75;;;;;12.14;63.79;100933.81;5003047;28;45324;-49
2023/01/07 04:58:08;;;;;;;;;3.00;3.00;;;;;12.02;64.28;100927.84;5001761;28;45425;-50
2023/01/07 05:00:34;;;;;;;;;3.00;2.50;;;;;12.05;64.07;100915.50;5002722;28;45315;-50
2023/01/07 05:02:59;;;;;;;;;5.50;5.50;;;;;11.97;64.06;100911.22;5002745;28;46162;-52
2023/01/07 05:05:24;;;;;;;;;1.50;1.00;;;;;11.96;63.75;100917.44;5002437;28;45258;-49
2023/01/07 05:07:50;;;;;;;;;3.00;3.00;;;;;11.94;63.91;100907.78;5003051;28;45606;-50
2023/01/07 05:10:15;;;;;;;;;4.00;4.00;;;;;11.86;64.39;100910.53;5002541;28;45559;-51
2023/01/07 05:12:40;;;;;;;;;4.00;3.00;;;;;11.82;64.29;100899.19;5002607;28;45873;-48
2023/01/07 05:15:06;;;;;;;;;9.25;5.00;;;;;11.77;64.36;100900.16;5002605;28;45417;-49
2023/01/07 05:17:32;;;;;;;;;5.00;3.00;;;;;11.68;64.43;100891.53;5001383;28;45392;-46
2023/01/07 05:19:57;;;;;;;;;3.00;3.00;;;;;11.61;64.63;100886.38;5002290;28;45536;-47
2023/01/07 05:22:23;;;;;;;;;5.00;5.00;;;;;11.51;65.08;100872.50;5002327;28;46099;-50
2023/01/07 05:24:48;;;;;;;;;4.00;3.25;;;;;11.51;64.74;100885.66;5002432;28;45282;-46
2023/01/07 05:27:13;;;;;;;;;5.25;5.00;;;;;11.42;65.12;100873.53;5002679;28;45544;-46
2023/01/07 05:29:39;;;;;;;;;4.00;4.00;;;;;11.39;65.09;100881.44;5002322;28;45546;-48
2023/01/07 05:32:04;;;;;;;;;5.50;4.50;;;;;11.33;64.87;100863.13;4984583;28;46041;-48
2023/01/07 05:34:30;;;;;;;;;5.00;5.00;;;;;11.30;64.80;100871.94;4988754;28;45317;-49
2023/01/07 05:36:55;;;;;;;;;2.00;2.00;;;;;11.27;64.83;100873.72;5001218;28;45356;-51
2023/01/07 05:39:21;;;;;;;;;4.75;4.75;;;;;11.21;65.22;100872.06;5001314;28;45544;-51
2023/01/07 05:41:47;;;;;;;;;5.00;5.00;;;;;11.13;65.16;100880.09;4993469;28;45952;-48
2023/01/07 05:44:12;;;;;;;;;7.50;5.50;;;;;11.10;65.21;100859.06;4995213;28;45873;-48
2023/01/07 05:46:37;;;;;;;;;7.50;6.00;;;;;11.07;65.10;100864.38;5001069;28;45290;-49
2023/01/07 05:49:03;;;;;;;;;5.25;5.00;;;;;11.07;64.97;100859.13;5000902;28;45465;-48
2023/01/07 05:51:28;;;;;;;;;6.50;5.50;;;;;11.00;65.05;100855.69;5000536;28;46246;-48
2023/01/07 05:53:54;;;;;;;;;6.00;6.00;;;;;10.96;65.13;100856.63;5001399;28;45358;-47
2023/01/07 05:56:20;;;;;;;;;3.00;3.00;;;;;10.94;64.98;100855.78;5000009;28;45280;-46
2023/01/07 05:58:45;;;;;;;;;6.00;5.00;;;;;10.94;65.09;100865.44;5001197;28;45275;-51
2023/01/07 06:01:10;;;;;;;;;6.25;6.25;;;;;10.86;65.09;100858.50;5001141;28;45613;-52
2023/01/07 06:03:36;;;;;;;;;6.50;5.00;;;;;10.86;65.19;100868.19;5000790;28;45310;-51
2023/01/07 06:06:05;;;;;;;;;7.50;6.25;;;;;10.77;65.44;100857.75;5000874;28;45659;-48
2023/01/07 06:08:33;;;;;;;;;7.00;6.25;;;;;10.80;65.12;100857.75;5000797;28;45482;-48
2023/01/07 06:10:58;;;;;;;;;5.00;5.00;;;;;10.74;65.16;100858.66;5000510;28;46308;-47
2023/01/07 06:13:23;;;;;;;;;4.50;3.50;;;;;10.70;65.41;100859.63;5000334;28;45243;-47
2023/01/07 06:15:48;;;;;;;;;4.50;4.50;;;;;10.70;65.09;100855.25;5000069;28;45520;-50
2023/01/07 06:18:14;;;;;;;;;6.00;5.75;;;;;10.61;65.29;100841.34;4999255;28;45642;-47
2023/01/07 06:20:39;;;;;;;;;5.25;5.00;;;;;10.66;65.31;100847.41;4999787;28;46114;-48
2023/01/07 06:23:04;;;;;;;;;6.00;6.00;;;;;10.67;65.14;100850.00;5001502;28;45228;-51
2023/01/07 06:25:30;;;;;;;;;7.50;7.00;;;;;10.60;65.39;100850.09;5000435;28;45358;-50
2023/01/07 06:27:56;;;;;;;;;6.75;4.75;;;;;10.60;65.32;100844.84;5001305;28;45501;-51
2023/01/07 06:30:22;;;;;;;;;5.25;5.25;;;;;10.57;65.33;100845.75;5001390;28;47152;-49
2023/01/07 06:32:47;;;;;;;;;4.25;4.25;;;;;10.48;65.43;100846.75;5000059;28;45334;-49
2023/01/07 06:35:13;;;;;;;;;5.50;5.50;;;;;10.47;65.61;100849.41;4988087;28;47059;-46
2023/01/07 06:37:38;;;;;;;;;5.75;5.75;;;;;10.44;65.48;100852.94;5001430;28;45481;-47
2023/01/07 06:40:04;;;;;;;;;7.75;6.00;;;;;10.45;65.44;100851.16;5001387;28;45394;-49
2023/01/07 06:42:30;;;;;;;;;5.50;5.00;;;;;10.40;65.57;100851.22;4987740;28;45545;-49
2023/01/07 06:44:56;;;;;;;;;6.00;6.00;;;;;10.38;65.36;100851.22;5001295;28;45287;-50
2023/01/07 06:47:21;;;;;;;;;4.25;4.25;;;;;10.33;65.46;100850.38;5001226;28;45235;-46
2023/01/07 06:49:47;;;;;;;;;7.25;5.00;;;;;10.30;65.56;100842.56;5000935;28;45243;-47
2023/01/07 06:52:12;;;;;;;;;5.75;4.75;;;;;10.25;65.73;100852.22;5001152;28;45306;-47
2023/01/07 06:54:37;;;;;;;;;6.25;6.25;;;;;10.24;65.65;100847.88;5001371;28;45388;-51
2023/01/07 06:57:03;;;;;;;;;5.00;4.00;;;;;10.23;65.62;100847.00;4998714;28;45437;-52
2023/01/07 06:59:28;;;;;;;;;7.00;6.00;;;;;10.19;65.66;100842.66;5001025;28;45318;-47
2023/01/07 07:01:53;;;;;;;;;5.50;5.50;;;;;10.15;65.76;100837.44;5000791;28;45266;-49
2023/01/07 07:04:19;;;;;;;;;6.00;5.75;;;;;10.15;65.48;100837.44;5000910;28;45490;-48
2023/01/07 07:06:44;;;;;;;;;6.50;5.50;;;;;10.11;65.55;100822.63;5000852;28;45468;-48
2023/01/07 07:09:09;;;;;;;;;6.25;6.25;;;;;10.03;65.72;100817.47;5000935;28;46114;-50
2023/01/07 07:11:35;;;;;;;;;7.00;5.75;;;;;10.03;65.72;100815.69;5000720;28;45247;-50
2023/01/07 07:14:00;;;;;;;;;6.50;5.50;;;;;10.03;65.74;100817.47;5001099;28;45171;-48
2023/01/07 07:16:25;;;;;;;;;5.25;4.25;;;;;9.98;65.86;100809.63;4999823;28;45348;-52
2023/01/07 07:18:52;;;;;;;;;5.50;5.50;;;;;9.95;65.70;100808.78;5000746;28;45406;-50
2023/01/07 07:21:18;;;;;;;;;4.75;4.75;;;;;9.95;65.86;100812.28;5000887;28;45320;-49
2023/01/07 07:23:43;;;;;;;;;6.75;6.50;;;;;9.89;65.71;100809.72;4983313;28;45294;-49
2023/01/07 07:26:09;;;;;;;;;4.50;4.50;;;;;9.92;65.87;100805.31;5000297;28;45467;-48
2023/01/07 07:28:35;;;;;;;;;7.00;5.00;;;;;9.88;65.60;100818.50;5000618;28;46047;-51
2023/01/07 07:31:00;;;;;;;;;7.00;6.50;;;;;9.86;65.86;100810.63;5000491;28;45274;-49
2023/01/07 07:33:26;;;;;;;;;4.75;4.75;;;;;9.84;65.78;100804.53;4994443;28;45439;-53
2023/01/07 07:35:51;;;;;;;;;5.75;4.25;;;;;9.77;65.99;100805.47;4975910;28;45499;-50
2023/01/07 07:38:17;;;;;;;;;4.75;4.75;;;;;9.74;65.93;100806.34;5000375;28;46816;-53
2023/01/07 07:40:43;;;;;;;;;5.00;4.75;;;;;9.77;65.73;100805.47;4998756;28;45384;-49
2023/01/07 07:43:09;;;;;;;;;4.25;3.50;;;;;9.78;65.64;100801.94;4987203;28;45236;-67
2023/01/07 07:45:35;;;;;;;;;5.75;5.75;;;;;9.73;65.92;100802.00;5000332;28;45267;-51
2023/01/07 07:48:00;;;;;;;;;5.50;5.50;;;;;9.71;65.46;100795.91;4999760;28;46110;-52
2023/01/07 07:50:26;;;;;;;;;6.25;5.75;;;;;9.68;65.82;100805.56;4982174;28;45269;-60
2023/01/07 07:52:51;;;;;;;;;5.00;3.50;;;;;9.67;66.01;100790.69;5000441;28;45350;-58
2023/01/07 07:55:17;;;;;;;;;6.00;5.75;;;;;9.61;65.82;100791.63;5000109;28;45250;-58
2023/01/07 07:57:42;;;;;;;;;5.00;4.00;;;;;9.58;66.14;100789.91;4991441;28;45886;-60
2023/01/07 08:00:08;;;;;;;;;5.50;5.00;;;;;9.59;65.78;100790.78;5000075;28;45365;-58
2023/01/07 08:02:33;;;;;;;;;5.00;5.00;;;;;9.55;65.85;100783.81;4999847;28;45328;-58
2023/01/07 08:04:58;;;;;;;;;6.00;4.75;;;;;9.62;65.59;100782.00;4999519;28;45354;-58
2023/01/07 08:07:24;;;;;;;;;5.00;5.00;;;;;9.49;66.07;100773.38;5000087;28;46108;-54
2023/01/07 08:09:49;;;;;;;;;7.00;7.00;;;;;9.55;65.51;100783.81;4999949;28;45328;-55
2023/01/07 08:12:14;;;;;;;;;7.00;5.00;;;;;9.55;65.93;100789.91;5000016;28;45274;-55
2023/01/07 08:14:40;;;;;;;;;3.50;2.25;;;;;9.50;65.92;100783.00;4999973;28;45368;-56
2023/01/07 08:17:05;;;;;;;;;5.75;5.75;;;;;9.49;65.99;100789.13;4999744;28;45392;-54
2023/01/07 08:19:30;;;;;;;;;5.00;4.75;;;;;9.53;65.86;100789.06;4999776;28;45301;-52
2023/01/07 08:21:56;;;;;;;;;5.50;4.00;;;;;9.53;65.81;100790.81;5000059;28;45721;-54
2023/01/07 08:24:21;;;;;;;;;6.00;6.00;;;;;9.53;65.83;100783.81;4999875;28;45661;-53
2023/01/07 08:26:46;;;;;;;;;7.50;6.50;;;;;9.55;65.69;100789.06;4992364;28;46965;-53
2023/01/07 08:29:12;;;;;;;;;5.00;3.75;;;;;9.53;65.60;100781.19;4999817;28;45247;-55
2023/01/07 08:31:37;;;;;;;;;5.00;5.00;;;;;9.58;65.84;100779.41;4999786;28;45294;-51
2023/01/07 08:34:03;;;;;;;;;5.25;5.25;;;;;9.51;65.78;100779.47;4988432;28;45478;-55
2023/01/07 08:36:28;;;;;;;;;4.75;4.75;;;;;9.55;66.07;100783.81;4997482;28;46172;-54
2023/01/07 08:38:54;;;;;;;;;5.00;5.00;;;;;9.58;65.83;100768.91;4999715;28;45328;-54
2023/01/07 08:41:21;;;;;;;;;5.50;2.50;;;;;9.55;66.17;100760.22;4994538;28;45331;-53
2023/01/07 08:43:46;;;;;;;;;5.25;5.25;;;;;9.57;65.85;100755.78;4991399;28;45561;-61
2023/01/07 08:46:12;;;;;;;;;4.00;4.00;;;;;9.62;66.06;100754.00;4999280;28;45455;-54
2023/01/07 08:48:39;;;;;;;;;6.25;5.25;;;;;9.63;66.01;100741.75;4999408;28;45383;-60
2023/01/07 08:51:05;;;;;;;;;4.00;3.00;;;;;9.62;65.96;100738.25;4997812;28;45678;-60
2023/01/07 08:53:31;;;;;;;;;6.25;6.25;;;;;9.70;66.15;100740.81;4981616;28;45583;-62
2023/01/07 08:55:57;;;;;;;;;7.25;5.50;;;;;9.74;65.79;100729.41;4998974;28;46241;-58
2023/01/07 08:58:24;;;;;;;;;7.00;6.00;;;;;9.71;66.04;100718.91;4974199;28;45495;-59
2023/01/07 09:00:49;;;;;;;;;5.50;4.50;;;;;9.78;65.91;100723.22;4999276;28;45287;-60
2023/01/07 09:03:14;;;;;;;;;7.50;6.00;;;;;9.85;65.79;100724.91;4999326;28;45311;-55
2023/01/07 09:05:40;;;;;;;;;5.25;4.00;;;;;9.87;65.84;100706.50;4998818;28;45362;-56
2023/01/07 09:08:05;;;;;;;;;8.00;7.00;;;;;9.93;66.12;100704.66;4997711;28;45458;-54
2023/01/07 09:10:30;;;;;;;;;4.50;4.50;;;;;10.03;65.74;100699.31;4998627;28;45413;-52
2023/01/07 09:12:56;;;;;;;;;5.75;5.00;;;;;10.10;65.79;100703.59;4999085;28;45318;-53
2023/01/07 09:15:21;;;;;;;;;6.75;6.50;;;;;10.14;65.65;100692.16;4999193;28;45885;-54
2023/01/07 09:17:47;;;;;;;;;5.00;5.00;;;;;10.12;65.93;100696.56;5000951;28;45394;-54
2023/01/07 09:20:12;;;;;;;;;6.75;6.25;;;;;10.15;66.16;100699.16;4983900;28;45537;-53
2023/01/07 09:22:37;;;;;;;;;6.25;4.50;;;;;10.19;66.04;100682.47;5001331;28;45683;-50
2023/01/07 09:25:04;;;;;;;;;7.50;5.25;;;;;10.30;65.84;100678.81;5001251;28;45302;-52
2023/01/07 09:27:30;;;;;;;;;6.00;5.00;;;;;10.39;65.65;100676.97;4994227;28;46621;-53
2023/01/07 09:29:57;;;;;;;;;4.75;4.75;;;;;10.49;65.59;100676.81;5001597;28;45487;-53
2023/01/07 09:32:27;;;;;;;;;5.50;5.00;;;;;10.51;65.76;100665.41;5001324;28;45219;-50
2023/01/07 09:34:52;;;;;;;;;4.00;4.00;;;;;10.59;65.64;100654.78;4996639;28;46241;-53
2023/01/07 09:37:17;;;;;;;;;6.25;5.00;;;;;10.67;65.59;100639.75;5001212;28;45404;-53
2023/01/07 09:39:43;;;;;;;;;4.50;4.50;;;;;10.79;65.66;100638.69;5001578;28;46753;-51
2023/01/07 09:42:33;;;;;;;;;3.25;3.25;;;;;10.85;65.65;100632.47;5006023;28;45422;-53
2023/01/07 09:44:58;;;;;;;;;5.00;3.25;;;;;10.95;65.75;100620.88;4993601;28;45915;-54
2023/01/07 09:47:28;;;;;;;;;7.00;6.00;;;;;11.02;65.40;100619.88;4985297;28;45387;-49
2023/01/07 09:50:00;;;;;;;;;4.00;4.00;;;;;11.06;65.33;100618.94;4981036;28;45380;-52
2023/01/07 09:52:35;;;;;;;;;4.00;4.00;;;;;11.19;65.62;100622.22;4980534;28;45385;-49
2023/01/07 09:55:09;;;;;;;;;4.75;4.75;;;;;11.28;65.67;100617.66;4982083;28;45173;-51
2023/01/07 09:57:34;;;;;;;;;4.75;4.00;;;;;11.33;65.86;100628.97;4983521;28;46585;-52
2023/01/07 10:00:00;;;;;;;;;4.50;4.00;;;;;11.37;66.13;100623.63;4982545;28;45527;-52
2023/01/07 10:02:44;;;;;;;;;7.00;5.50;;;;;11.44;65.34;100618.25;4980778;28;45656;-54
2023/01/07 10:05:28;;;;;;;;;4.00;4.00;;;;;11.50;65.51;100623.38;4980468;28;45507;-51
2023/01/07 10:08:10;;;;;;;;;6.75;5.50;;;;;11.56;65.74;100623.28;4981936;28;45176;-51
2023/01/07 10:10:50;;;;;;;;;3.00;3.00;;;;;11.57;65.45;100622.34;4981959;28;45371;-56
2023/01/07 10:13:44;;;;;;;;;4.75;4.75;;;;;11.64;65.47;100628.38;4982669;28;45240;-50
2023/01/07 10:16:17;;;;;;;;;4.50;4.50;;;;;11.72;65.14;100623.81;5011450;28;46280;-51
2023/01/07 10:19:10;;;;;;;;;5.50;5.50;;;;;11.73;65.23;100611.53;4993488;28;45360;-61
2023/01/07 10:21:46;;;;;;;;;6.00;5.00;;;;;11.76;64.92;100609.69;4984530;28;45381;-62
2023/01/07 10:24:26;;;;;;;;;5.75;5.00;;;;;11.75;65.01;100600.06;5009240;28;45429;-50
2023/01/07 10:26:56;;;;;;;;;6.50;5.00;;;;;11.69;65.97;100606.31;4982000;28;47423;-54
2023/01/07 10:29:45;;;;;;;;;6.00;6.00;;;;;11.70;65.31;100601.94;4992988;28;45488;-52
2023/01/07 10:32:16;;;;;;;;;4.00;4.00;;;;;11.75;65.07;100607.06;4997382;28;45269;-51
2023/01/07 10:34:45;;;;;;;;;7.25;5.00;;;;;11.66;65.31;100602.88;4981174;28;45410;-50
2023/01/07 10:37:34;;;;;;;;;6.25;5.50;;;;;11.66;65.51;100598.50;4995032;28;46268;-50
2023/01/07 10:40:11;;;;;;;;;6.75;4.00;;;;;11.67;65.29;100580.91;4981495;28;45287;-49
2023/01/07 10:43:00;;;;;;;;;4.75;4.75;;;;;11.66;64.96;100577.44;4985548;28;45379;-55
2023/01/07 10:45:31;;;;;;;;;7.00;6.50;;;;;11.66;64.88;100585.31;5001086;28;45276;-50
2023/01/07 10:48:24;;;;;;;;;4.50;4.00;;;;;11.69;64.87;100560.69;5000642;28;46196;-49
2023/01/07 10:51:01;;;;;;;;;3.75;2.50;;;;;11.65;65.27;100573.06;5000672;28;45335;-48
2023/01/07 10:53:46;;;;;;;;;5.50;4.50;;;;;11.65;64.88;100565.16;5001038;28;45251;-54
2023/01/07 10:56:29;;;;;;;;;6.25;6.25;;;;;11.70;64.45;100557.19;4997323;28;45386;-49
2023/01/07 10:58:54;;;;;;;;;5.75;5.75;;;;;11.73;64.72;100557.09;4998865;28;46551;-48
2023/01/07 11:01:30;;;;;;;;;4.50;4.50;;;;;11.74;64.96;100550.09;5000730;28;45285;-49
2023/01/07 11:03:58;;;;;;;;;4.00;4.00;;;;;11.77;64.45;100536.84;5000782;28;45374;-49
2023/01/07 11:06:38;;;;;;;;;4.50;4.50;;;;;11.79;64.64;100533.28;5000669;28;45252;-51
2023/01/07 11:09:08;;;;;;;;;7.00;7.00;;;;;11.86;64.61;100534.88;5000857;28;45386;-51
2023/01/07 11:11:34;;;;;;;;;3.75;3.00;;;;;11.88;65.09;100537.47;5000580;28;45177;-51
2023/01/07 11:14:05;;;;;;;;;6.00;6.00;;;;;11.85;64.92;100527.00;5001096;28;45403;-50
2023/01/07 11:16:40;;;;;;;;;5.00;5.00;;;;;11.84;64.98;100527.91;4982957;28;45327;-51
2023/01/07 11:19:09;;;;;;;;;7.50;6.50;;;;;11.99;63.79;100521.47;4983647;28;46186;-53
2023/01/07 11:21:36;;;;;;;;;4.75;4.75;;;;;12.06;63.74;100511.63;5000564;28;45365;-47
2023/01/07 11:24:28;;;;;;;;;4.50;4.50;;;;;11.99;64.12;100503.88;5000758;28;45437;-50
2023/01/07 11:27:13;;;;;;;;;6.75;5.50;;;;;12.03;64.40;100502.88;5000234;28;45333;-49
2023/01/07 11:29:45;;;;;;;;;6.00;4.00;;;;;12.00;65.71;100500.34;4995527;28;46233;-47
2023/01/07 11:32:20;;;;;;;;;8.00;5.25;;;;;12.05;64.47;100491.47;4997772;28;45357;-51
2023/01/07 11:34:52;;;;;;;;;8.00;7.75;;;;;12.10;64.09;100472.03;4985082;28;45476;-60
2023/01/07 11:37:29;;;;;;;;;6.00;4.75;;;;;12.14;64.66;100485.97;4999001;28;45448;-51